Fortunia — V2OG3 — position and weather

sailwx.info

Track history (hours):
 
Tides and Currents Weather Stations Pressure Air Temp Water Temp Dewpoint Dewpoint Depression Visibility Wind Speed Wind Dir Waves Ship Positions

Fortunia

Last reported at 2014-Aug-22 15:20 UTC. Time now 2014-Aug-22 19:39 UTC.
Position N 41°20' E 002°10'.

Length 121 m; draft 5.5 m.

Type: Ship. MMSI: 304010638.

Date/timePositionNaut miles runAvg speedWind from/ knotsBaromVisibWave heightAir tempDewpointWater temp
2014-Aug-22 15:20N 41°20' E 002°10'2 0.4
2014-Aug-22 11:15N 41°19' E 002°11'3 4.6
2014-Aug-22 10:33N 41°16' E 002°11'10 9.9
2014-Aug-22 09:33N 41°07' E 002°04'1110.6
2014-Aug-22 08:33N 40°58' E 001°58'1010.5
2014-Aug-22 07:33N 40°49' E 001°52'1211.5
2014-Aug-22 06:33N 40°38' E 001°45'1211.9
2014-Aug-22 05:33N 40°28' E 001°38'1211.8
2014-Aug-22 04:33N 40°17' E 001°31'1111.3
2014-Aug-22 03:33N 40°07' E 001°24'1111.3
2014-Aug-22 02:33N 39°57' E 001°18'1111.4
2014-Aug-22 01:33N 39°47' E 001°11'5811.1
2014-Aug-21 20:17N 38°55' E 000°36'1111.1
2014-Aug-21 19:19N 38°46' E 000°30'1011.2
2014-Aug-21 18:24N 38°37' E 000°23'1011.4
2014-Aug-21 17:33N 38°29' E 000°16'1211.5
2014-Aug-21 16:32N 38°19' E 000°08'3511.6
2014-Aug-21 13:29N 37°49' W 000°17'1111.9
2014-Aug-21 12:33N 37°40' W 000°24'1211.4
2014-Aug-21 11:31N 37°31' W 000°34'1010.7
2014-Aug-21 10:33N 37°31' W 000°47'10 0.5
2014-Aug-20 15:32N 37°33' W 000°59'1110.8
2014-Aug-20 14:33N 37°30' W 000°46'1110.9
2014-Aug-20 13:33N 37°28' W 000°33'1111.2
2014-Aug-20 12:33N 37°25' W 000°19'1411.2
2014-Aug-20 11:20N 37°23' W 000°02'3211.2
2014-Aug-20 08:27N 37°17' E 000°38'9011.1
2014-Aug-20 00:19N 36°57' E 002°28'1112.0
2014-Aug-19 23:26N 36°55' E 002°41'20 0.9
2014-Aug-18 23:29N 36°46' E 003°04'0 0.0
2014-Aug-18 21:19N 36°46' E 003°04'0 0.0
2014-Aug-18 12:13N 36°46' E 003°04'0 0.0
2014-Aug-18 10:30N 36°46' E 003°04'0 0.0
2014-Aug-18 08:03N 36°46' E 003°04'  
2014-Aug-15 10:21N 39°26' E 002°13'3910.2
2014-Aug-15 06:29N 40°05' E 002°10'1210.5
2014-Aug-15 05:21N 40°17' E 002°10'2511.1
2014-Aug-15 03:04N 40°42' E 002°10'611.0
2014-Aug-15 02:32N 40°48' E 002°10'1311.0
2014-Aug-15 01:19N 41°02' E 002°10'0 0.4
2014-Aug-15 00:13N 41°02' E 002°11'1810.4
2014-Aug-14 22:29N 41°20' E 002°10'0 0.1
2014-Aug-14 18:12N 41°21' E 002°10'17 1.9
2014-Aug-14 09:31N 41°05' E 002°03'1111.2
2014-Aug-14 08:33N 40°55' E 001°55'1110.9
2014-Aug-14 07:33N 40°45' E 001°49'1111.0
2014-Aug-14 06:33N 40°36' E 001°43'1110.7
2014-Aug-14 05:33N 40°26' E 001°37'1110.6
2014-Aug-14 04:33N 40°16' E 001°31'1110.7
2014-Aug-14 03:33N 40°07' E 001°24'1111.0
2014-Aug-14 02:33N 39°57' E 001°18'1111.4
2014-Aug-14 01:33N 39°47' E 001°11'5011.6
2014-Aug-13 21:15N 39°03' E 000°40'811.1
2014-Aug-13 20:33N 38°56' E 000°36'1211.0
2014-Aug-13 19:30N 38°46' E 000°29'1110.6
2014-Aug-13 18:25N 38°36' E 000°22'4110.7
2014-Aug-13 14:33N 38°01' W 000°07'1110.8
2014-Aug-13 13:33N 37°52' W 000°14'1110.9
2014-Aug-13 12:33N 37°43' W 000°22'1110.8
2014-Aug-13 11:33N 37°34' W 000°29'1010.3
2014-Aug-13 10:33N 37°31' W 000°41'1110.8
2014-Aug-13 09:33N 37°32' W 000°55'1 0.1
2014-Aug-12 17:32N 37°31' W 000°54'1111.5
2014-Aug-12 16:33N 37°30' W 000°40'1111.0
2014-Aug-12 15:33N 37°27' W 000°27'  
Track history (hours):
 
Tides and Currents Weather Stations Pressure Air Temp Water Temp Dewpoint Dewpoint Depression Visibility Wind Speed Wind Dir Waves Ship Positions

Fortunia

Last reported at 2014-Aug-22 15:20 UTC. Time now 2014-Aug-22 19:39 UTC.
Position N 41°20' E 002°10'.

Length 121 m; draft 5.5 m.

Type: Ship. MMSI: 304010638.

Date/timePositionNaut miles runAvg speedWind from/ knotsBaromVisibWave heightAir tempDewpointWater temp
2014-Aug-22 15:20N 41°20' E 002°10'2 0.4
2014-Aug-22 11:15N 41°19' E 002°11'3 4.6
2014-Aug-22 10:33N 41°16' E 002°11'10 9.9
2014-Aug-22 09:33N 41°07' E 002°04'1110.6
2014-Aug-22 08:33N 40°58' E 001°58'1010.5
2014-Aug-22 07:33N 40°49' E 001°52'1211.5
2014-Aug-22 06:33N 40°38' E 001°45'1211.9
2014-Aug-22 05:33N 40°28' E 001°38'1211.8
2014-Aug-22 04:33N 40°17' E 001°31'1111.3
2014-Aug-22 03:33N 40°07' E 001°24'1111.3
2014-Aug-22 02:33N 39°57' E 001°18'1111.4
2014-Aug-22 01:33N 39°47' E 001°11'5811.1
2014-Aug-21 20:17N 38°55' E 000°36'1111.1
2014-Aug-21 19:19N 38°46' E 000°30'1011.2
2014-Aug-21 18:24N 38°37' E 000°23'1011.4
2014-Aug-21 17:33N 38°29' E 000°16'1211.5
2014-Aug-21 16:32N 38°19' E 000°08'3511.6
2014-Aug-21 13:29N 37°49' W 000°17'1111.9
2014-Aug-21 12:33N 37°40' W 000°24'1211.4
2014-Aug-21 11:31N 37°31' W 000°34'1010.7
2014-Aug-21 10:33N 37°31' W 000°47'10 0.5
2014-Aug-20 15:32N 37°33' W 000°59'1110.8
2014-Aug-20 14:33N 37°30' W 000°46'1110.9
2014-Aug-20 13:33N 37°28' W 000°33'1111.2
2014-Aug-20 12:33N 37°25' W 000°19'1411.2
2014-Aug-20 11:20N 37°23' W 000°02'3211.2
2014-Aug-20 08:27N 37°17' E 000°38'9011.1
2014-Aug-20 00:19N 36°57' E 002°28'1112.0
2014-Aug-19 23:26N 36°55' E 002°41'20 0.9
2014-Aug-18 23:29N 36°46' E 003°04'0 0.0
2014-Aug-18 21:19N 36°46' E 003°04'0 0.0
2014-Aug-18 12:13N 36°46' E 003°04'0 0.0
2014-Aug-18 10:30N 36°46' E 003°04'0 0.0
2014-Aug-18 08:03N 36°46' E 003°04'  
2014-Aug-15 10:21N 39°26' E 002°13'3910.2
2014-Aug-15 06:29N 40°05' E 002°10'1210.5
2014-Aug-15 05:21N 40°17' E 002°10'2511.1
2014-Aug-15 03:04N 40°42' E 002°10'611.0
2014-Aug-15 02:32N 40°48' E 002°10'1311.0
2014-Aug-15 01:19N 41°02' E 002°10'0 0.4
2014-Aug-15 00:13N 41°02' E 002°11'1810.4
2014-Aug-14 22:29N 41°20' E 002°10'0 0.1
2014-Aug-14 18:12N 41°21' E 002°10'17 1.9
2014-Aug-14 09:31N 41°05' E 002°03'1111.2
2014-Aug-14 08:33N 40°55' E 001°55'1110.9
2014-Aug-14 07:33N 40°45' E 001°49'1111.0
2014-Aug-14 06:33N 40°36' E 001°43'1110.7
2014-Aug-14 05:33N 40°26' E 001°37'1110.6
2014-Aug-14 04:33N 40°16' E 001°31'1110.7
2014-Aug-14 03:33N 40°07' E 001°24'1111.0
2014-Aug-14 02:33N 39°57' E 001°18'1111.4
2014-Aug-14 01:33N 39°47' E 001°11'5011.6
2014-Aug-13 21:15N 39°03' E 000°40'811.1
2014-Aug-13 20:33N 38°56' E 000°36'1211.0
2014-Aug-13 19:30N 38°46' E 000°29'1110.6
2014-Aug-13 18:25N 38°36' E 000°22'4110.7
2014-Aug-13 14:33N 38°01' W 000°07'1110.8
2014-Aug-13 13:33N 37°52' W 000°14'1110.9
2014-Aug-13 12:33N 37°43' W 000°22'1110.8
2014-Aug-13 11:33N 37°34' W 000°29'1010.3
2014-Aug-13 10:33N 37°31' W 000°41'1110.8
2014-Aug-13 09:33N 37°32' W 000°55'1 0.1
2014-Aug-12 17:32N 37°31' W 000°54'1111.5
2014-Aug-12 16:33N 37°30' W 000°40'1111.0
2014-Aug-12 15:33N 37°27' W 000°27'  

Dump ship's entire track history